Flight Track Log - Related Links

Times and Time Zones

All times are in EDT time to prevent confusion due to time zone crossing. See the N244A flight status page for this flight to view local times or setup timezone preferences in your user account.

Time Position Orientation Groundspeed Altitude Reporting Facility
EDT Latitude Longitude Course Direction KTS MPH feet Rate Location/Type
Sun 11:37:13 AM 40.9167 -74.0500 252° West 218 251 3,200  Level New York TRACON
Sun 11:38:13 AM 40.9167 -74.1333 270° West 250 288 4,800 3,050 Climbing New York TRACON
Sun 11:39:13 AM 40.9167 -74.2333 270° West 241 277 9,300 2,650 Climbing New York TRACON
Sun 11:40:13 AM 40.9000 -74.3333 258° West 329 379 10,100 400 Climbing New York TRACON
Sun 11:41:13 AM 40.8500 -74.4500 240° Southwest 392 451 10,100  Level New York TRACON
Sun 11:42:00 AM 40.6473 -74.7109 252° West  Level FlightAware Approximate
Sun 11:42:13 AM 40.7833 -74.5667 233° Southwest 381 438 10,100  Level New York TRACON
Sun 11:43:20 AM 40.7233 -74.7003 239° Southwest 411 473 11,700 2,315 Climbing New York Center
Sun 11:44:20 AM 40.6697 -74.8094 237° Southwest 401 461 15,000 3,500 Climbing New York Center
Sun 11:45:20 AM 40.6072 -74.9289 235° Southwest 401 461 18,700 2,750 Climbing New York Center
Sun 11:46:20 AM 40.5508 -75.0456 238° Southwest 396 456 20,500 1,250 Climbing New York Center
Sun 11:47:20 AM 40.4711 -75.1717 230° Southwest 418 481 21,200 1,240 Climbing New York Center
Sun 11:48:21 AM 40.3914 -75.3000 231° Southwest 442 509 23,000 2,300 Climbing New York Center
Sun 11:49:20 AM 40.3094 -75.4253 229° Southwest 457 526 25,800 2,975 Climbing New York Center
Sun 11:50:20 AM 40.2336 -75.5453 230° Southwest 451 519 28,900 2,300 Climbing New York Center
Sun 11:51:20 AM 40.1639 -75.6681 233° Southwest 439 505 30,400 967 Climbing New York Center
Sun 11:53:20 AM 40.0336 -75.9383 238° Southwest 438 504 31,800 1,167 Climbing New York Center
Sun 11:54:20 AM 39.9514 -76.0542 227° Southwest 443 510 33,900 1,050 Climbing New York Center
Sun 11:55:20 AM 39.8422 -76.1647 218° Southwest 448 516 33,900 50 Level New York Center
Sun 11:56:20 AM 39.7561 -76.2661 222° Southwest 459 528 34,000 50 Climbing New York Center
Sun 11:57:20 AM 39.6550 -76.3797 221° Southwest 459 528 34,000 -63 Level New York Center
Sun 11:57:56 AM 39.6022 -76.4425 223° Southwest 455 524 33,900  Descending Washington Center
Sun 11:58:57 AM 39.4994 -76.5489 219° Southwest 455 524 34,000 50 Climbing Washington Center
Sun 11:59:56 AM 39.4069 -76.6525 221° Southwest 455 524 34,000  Level Washington Center
Sun 12:00:57 PM 39.3122 -76.7558 220° Southwest 460 529 34,000  Level Washington Center
Sun 12:01:56 PM 39.2194 -76.8589 221° Southwest 455 524 34,000  Level Washington Center
Sun 12:02:57 PM 39.1244 -76.9614 220° Southwest 455 524 34,000  Level Washington Center
Sun 12:03:58 PM 39.0317 -77.0614 220° Southwest 455 524 34,000  Level Washington Center
Sun 12:04:58 PM 38.9386 -77.1661 221° Southwest 450 518 34,000  Level Washington Center
Sun 12:05:56 PM 38.8433 -77.2656 219° Southwest 445 512 34,000  Level Washington Center
Sun 12:06:57 PM 38.7544 -77.3644 221° Southwest 439 505 34,000  Level Washington Center
Sun 12:07:57 PM 38.6611 -77.4633 220° Southwest 439 505 34,000  Level Washington Center
Sun 12:08:57 PM 38.5700 -77.5594 220° Southwest 439 505 34,000  Level Washington Center
Sun 12:09:58 PM 38.4978 -77.6397 221° Southwest 439 505 34,000  Level Washington Center
Sun 12:10:58 PM 38.3978 -77.7481 220° Southwest 439 505 34,000  Level Washington Center
Sun 12:11:56 PM 38.3064 -77.8461 220° Southwest 439 505 34,000  Level Washington Center
Sun 12:12:58 PM 38.2128 -77.9436 219° Southwest 439 505 34,000  Level Washington Center
Sun 12:13:58 PM 38.1233 -78.0358 219° Southwest 434 499 34,000  Level Washington Center
Sun 12:14:58 PM 38.0336 -78.1331 220° Southwest 434 499 34,000  Level Washington Center
Sun 12:15:56 PM 37.9586 -78.2361 227° Southwest 415 478 34,000  Level Washington Center
Sun 12:16:57 PM 37.8786 -78.3542 229° Southwest 409 471 34,000  Level Washington Center
Sun 12:17:57 PM 37.8031 -78.4619 228° Southwest 409 471 34,000  Level Washington Center
Sun 12:18:58 PM 37.7153 -78.5583 221° Southwest 409 471 34,000  Level Washington Center
Sun 12:19:59 PM 37.6253 -78.6492 219° Southwest 415 478 34,000 -610 Level Washington Center
Sun 12:20:56 PM 37.5397 -78.7400 220° Southwest 420 483 32,800 -1,424 Descending Washington Center
Sun 12:21:57 PM 37.4625 -78.8206 220° Southwest 410 472 31,200 -1,328 Descending Washington Center
Sun 12:22:58 PM 37.3831 -78.9033 220° Southwest 398 458 30,100 -1,109 Descending Washington Center
Sun 12:23:56 PM 37.3014 -78.9886 220° Southwest 391 450 29,000 -555 Descending Washington Center
Sun 12:24:57 PM 37.2175 -79.0736 219° Southwest 391 450 29,000  Level Washington Center
Sun 12:25:56 PM 37.1400 -79.1561 220° Southwest 386 444 29,000  Level Washington Center
Sun 12:26:56 PM 37.0539 -79.2458 220° Southwest 374 430 29,000  Level Washington Center
Sun 12:27:57 PM 36.9742 -79.3278 219° Southwest 374 430 29,000  Level Washington Center
Sun 12:28:57 PM 36.8983 -79.4097 221° Southwest 374 430 29,000  Level Washington Center
Sun 12:29:58 PM 36.8167 -79.4914 219° Southwest 374 430 29,000  Level Washington Center
Sun 12:30:58 PM 36.7389 -79.5731 220° Southwest 374 430 29,000  Level Washington Center
Sun 12:31:56 PM 36.6675 -79.6444 219° Southwest 369 425 29,000  Level Washington Center
Sun 12:32:57 PM 36.5875 -79.7283 220° Southwest 369 425 29,000 -1,206 Level Washington Center
Sun 12:35:10 PM 36.4039 -79.9142 219° Southwest 385 443 25,100 -1,554 Descending Atlanta Center
Sun 12:36:10 PM 36.3275 -79.9928 220° Southwest 373 429 24,000 -550 Descending Atlanta Center
Sun 12:37:10 PM 36.2483 -80.0611 215° Southwest 359 413 24,000 -1,000 Level Atlanta Center
Sun 12:38:10 PM 36.1692 -80.1267 214° Southwest 353 406 22,000 -1,950 Descending Atlanta Center
Sun 12:39:10 PM 36.0897 -80.1947 215° Southwest 364 419 20,100 -1,550 Descending Atlanta Center
Sun 12:40:10 PM 36.0086 -80.2653 215° Southwest 369 425 18,900 -2,050 Descending Atlanta Center
Sun 12:41:10 PM 35.9314 -80.3331 215° Southwest 363 418 16,000 -3,042 Descending Atlanta Center
Sun 12:41:21 PM 35.9133 -80.3544 224° Southwest 340 391 15,300 -2,000 Descending Atlanta Center
Sun 12:42:10 PM 35.8581 -80.3953 211° Southwest 347 399 14,000 -1,770 Descending Atlanta Center
Sun 12:42:22 PM 35.8400 -80.4142 220° Southwest 301 346 13,500 -1,000 Descending Atlanta Center
Sun 12:43:10 PM 35.7911 -80.4522 212° Southwest 319 367 13,000 -1,082 Descending Atlanta Center
Sun 12:43:23 PM 35.7647 -80.4764 217° Southwest 292 336 12,400 -1,800 Descending Atlanta Center
Sun 12:44:10 PM 35.7136 -80.5169 213° Southwest 319 367 11,200 -1,400 Descending Atlanta Center
Sun 12:44:23 PM 35.6831 -80.5411 213° Southwest 366 421 11,000 -200 Descending Atlanta Center
Sun 12:45:10 PM 35.6322 -80.5869 216° Southwest 345 397 11,000 98 Level Atlanta Center
Sun 12:45:24 PM 35.6056 -80.6083 213° Southwest 349 402 11,100 100 Climbing Atlanta Center
Sun 12:46:10 PM 35.5567 -80.6486 214° Southwest 345 397 11,100 -197 Level Atlanta Center
Sun 12:46:25 PM 35.5344 -80.6700 218° Southwest 311 358 10,900 -1,000 Descending Atlanta Center
Sun 12:47:10 PM 35.4853 -80.7053 210° Southwest 325 374 10,100 -885 Descending Atlanta Center
Sun 12:47:26 PM 35.4631 -80.7292 221° Southwest 301 346 10,000 -100 Descending Atlanta Center
Sun 12:48:10 PM 35.4178 -80.7614 210° Southwest 313 360 10,000  Level Atlanta Center
Sun 12:48:27 PM 35.3975 -80.7828 221° Southwest 288 331 10,000  Level Atlanta Center
Sun 12:49:10 PM 35.3547 -80.8175 214° Southwest 296 341 10,000 -182 Level Atlanta Center
Sun 12:49:33 PM 35.3219 -80.8392 208° Southwest 278 320 9,800 -900 Descending Atlanta Center
Sun 12:50:10 PM 35.2758 -80.8383 179° South 286 329 9,100 -787 Descending Atlanta Center
Sun 12:50:34 PM 35.2319 -80.8350 176° South 335 386 9,000 -800 Descending Atlanta Center
Sun 12:51:10 PM 35.1861 -80.8317 177° South 299 344 8,300 -1,180 Descending Atlanta Center
Sun 12:51:35 PM 35.1442 -80.8281 176° South 304 350 7,800 -1,370 Descending Atlanta Center
Sun 12:52:42 PM 35.0583 -80.8189 175° South 247 284 6,200 -1,266 Descending Atlanta Center
Sun 12:53:43 PM 35.0242 -80.8658 228° Southwest 189 217 5,100 -689 Descending Atlanta Center
Sun 12:54:44 PM 35.0506 -80.9131 304° West 186 214 4,800 -672 Descending Atlanta Center
Sun 12:55:39 PM 35.0947 -80.9267 346° North 188 216 3,800 -1,252 Descending Atlanta Center
Sun 12:56:39 PM 35.1447 -80.9297 357° North 178 205 2,400 -1,276 Descending Atlanta Center
Sun 12:57:46 PM 35.1886 -80.9358 354° North 141 162 1,100 -1,164 Descending Atlanta Center
Sun 12:59:00 PM 35.2000 -80.9333 328° Northwest  Level FlightAware Approximate
Sun 01:06:00 PM 35.2137 -80.9491 328° Northwest  Level Estimated

Login

Don't have an account? Register now (free) for customized features, flight alerts, and more!